Time;durP1;ratioP1;P1;durP2;ratioP2;P2;SDS_P1;SDS_P2;PMS_P1;PMS_P2;Temp;Humidity;BMP_temperature;BMP_pressure;BME280_temperature;BME280_humidity;BME280_pressure;Samples;Min_cycle;Max_cycle;Signal;HPM_P1;HPM_P2
2023/03/31 00:00:26;;;;;;;3.33;0.80;;;;;;;;;;5004408;28;20022;-63
2023/03/31 00:02:52;;;;;;;2.80;0.68;;;;;;;;;;4998538;28;20464;-64
2023/03/31 00:05:18;;;;;;;5.55;0.85;;;;;;;;;;5006402;28;20362;-64
2023/03/31 00:07:44;;;;;;;3.63;0.80;;;;;;;;;;4997509;28;20501;-63
2023/03/31 00:10:10;;;;;;;3.80;0.90;;;;;;;;;;5000907;28;20076;-64
2023/03/31 00:12:35;;;;;;;6.03;1.00;;;;;;;;;;5005899;28;20017;-64
2023/03/31 00:15:01;;;;;;;4.40;0.70;;;;;;;;;;5006811;28;20032;-63
2023/03/31 00:17:26;;;;;;;3.60;0.80;;;;;;;;;;5004413;28;20026;-63
2023/03/31 00:19:51;;;;;;;3.23;0.80;;;;;;;;;;4995005;28;20076;-63
2023/03/31 00:22:17;;;;;;;4.40;0.70;;;;;;;;;;4997759;28;20018;-64
2023/03/31 00:24:43;;;;;;;3.97;0.73;;;;;;;;;;5007197;28;20029;-63
2023/03/31 00:27:08;;;;;;;3.30;0.65;;;;;;;;;;4991476;28;20078;-63
2023/03/31 00:29:34;;;;;;;4.10;0.90;;;;;;;;;;4992137;28;20053;-63
2023/03/31 00:31:59;;;;;;;;;;;;;;;;;;5002837;28;20516;-63
2023/03/31 00:34:25;;;;;;;4.90;0.80;;;;;;;;;;5010883;28;19945;-63
2023/03/31 00:39:26;;;;;;;4.25;0.85;;;;;;;;;;4996375;23;20060;-63
2023/03/31 00:41:52;;;;;;;5.53;0.90;;;;;;;;;;5004411;28;20103;-62
2023/03/31 00:44:26;;;;;;;6.07;0.80;;;;;;;;;;5009030;28;20468;-63
2023/03/31 00:46:54;;;;;;;5.53;0.77;;;;;;;;;;4999598;28;20022;-62
2023/03/31 00:49:29;;;;;;;5.20;1.05;;;;;;;;;;5004050;28;20710;-62
2023/03/31 00:51:57;;;;;;;4.78;0.90;;;;;;;;;;5000832;28;20036;-62
2023/03/31 00:54:25;;;;;;;2.88;0.65;;;;;;;;;;5000683;28;20030;-63
2023/03/31 00:56:54;;;;;;;4.80;0.70;;;;;;;;;;5008895;28;20033;-62
2023/03/31 00:59:20;;;;;;;6.95;0.80;;;;;;;;;;4992861;28;20202;-63
2023/03/31 01:01:46;;;;;;;4.57;0.90;;;;;;;;;;4998667;28;20046;-62
2023/03/31 01:04:13;;;;;;;6.00;1.00;;;;;;;;;;5004539;28;20026;-62
2023/03/31 01:06:45;;;;;;;4.85;0.70;;;;;;;;;;5000469;28;20477;-63
2023/03/31 01:09:11;;;;;;;4.57;0.80;;;;;;;;;;5007768;28;20081;-63
2023/03/31 01:11:36;;;;;;;4.50;1.10;;;;;;;;;;5006791;28;20495;-63
2023/03/31 01:14:03;;;;;;;6.13;0.80;;;;;;;;;;5002664;28;20018;-62
2023/03/31 01:16:28;;;;;;;;;;;;;;;;;;5003644;28;20617;-62
2023/03/31 01:18:56;;;;;;;5.18;0.80;;;;;;;;;;5000864;28;20407;-62
2023/03/31 01:21:30;;;;;;;5.13;0.80;;;;;;;;;;5001300;28;20022;-62
2023/03/31 01:23:58;;;;;;;6.38;0.88;;;;;;;;;;5002593;28;20018;-62
2023/03/31 01:26:42;;;;;;;3.85;0.50;;;;;;;;;;5010006;28;20021;-62
2023/03/31 01:29:20;;;;;;;3.17;0.80;;;;;;;;;;5008497;28;20440;-62
2023/03/31 01:31:54;;;;;;;5.35;1.17;;;;;;;;;;5000323;28;20021;-61
2023/03/31 01:34:40;;;;;;;5.07;1.10;;;;;;;;;;5007733;28;20057;-62
2023/03/31 01:37:21;;;;;;;4.38;0.77;;;;;;;;;;4999457;28;20026;-63
2023/03/31 01:39:56;;;;;;;2.85;0.60;;;;;;;;;;5006570;28;20392;-63
2023/03/31 01:42:27;;;;;;;3.63;0.60;;;;;;;;;;4996981;28;20570;-61
2023/03/31 01:44:55;;;;;;;5.05;0.70;;;;;;;;;;5004695;28;20040;-62
2023/03/31 01:47:27;;;;;;;5.18;0.80;;;;;;;;;;4999274;28;20030;-62
2023/03/31 01:49:56;;;;;;;5.53;0.98;;;;;;;;;;5002808;28;20477;-61
2023/03/31 01:52:32;;;;;;;4.80;0.80;;;;;;;;;;5007890;28;20024;-62
2023/03/31 01:55:03;;;;;;;4.10;0.80;;;;;;;;;;4999471;28;20022;-62
2023/03/31 01:57:36;;;;;;;6.90;1.08;;;;;;;;;;5002227;28;20322;-63
2023/03/31 02:00:12;;;;;;;4.53;0.70;;;;;;;;;;5000211;28;20025;-61
2023/03/31 02:02:43;;;;;;;6.05;0.90;;;;;;;;;;4996610;28;20037;-62
2023/03/31 02:05:11;;;;;;;4.70;0.90;;;;;;;;;;5008944;28;20014;-62
2023/03/31 02:07:38;;;;;;;6.43;1.10;;;;;;;;;;5005446;28;20059;-62
2023/03/31 02:10:05;;;;;;;4.68;0.80;;;;;;;;;;4998800;28;20105;-61
2023/03/31 02:12:31;;;;;;;3.97;0.90;;;;;;;;;;4993033;28;20049;-62
2023/03/31 02:14:57;;;;;;;5.07;0.98;;;;;;;;;;5007002;28;20113;-62
2023/03/31 02:17:31;;;;;;;4.05;0.80;;;;;;;;;;5001805;28;20041;-62
2023/03/31 02:19:58;;;;;;;5.55;0.80;;;;;;;;;;5001775;28;20397;-62
2023/03/31 02:22:24;;;;;;;4.20;0.88;;;;;;;;;;5000940;28;20018;-63
2023/03/31 02:24:51;;;;;;;3.70;0.73;;;;;;;;;;5000003;28;20049;-63
2023/03/31 02:27:16;;;;;;;4.75;0.90;;;;;;;;;;5007008;28;20018;-62
2023/03/31 02:29:41;;;;;;;6.35;0.75;;;;;;;;;;4998255;28;20569;-62
2023/03/31 02:32:19;;;;;;;3.13;0.70;;;;;;;;;;5004344;28;20054;-62
2023/03/31 02:34:44;;;;;;;4.20;0.70;;;;;;;;;;5003993;28;20499;-62
2023/03/31 02:37:11;;;;;;;6.35;1.20;;;;;;;;;;4997397;28;20040;-62
2023/03/31 02:39:37;;;;;;;6.22;1.10;;;;;;;;;;4996800;28;20018;-62
2023/03/31 02:42:06;;;;;;;5.35;0.80;;;;;;;;;;5004085;28;20083;-62
2023/03/31 02:44:32;;;;;;;5.93;1.10;;;;;;;;;;5006359;28;20021;-62
2023/03/31 02:46:57;;;;;;;4.30;0.95;;;;;;;;;;5001738;28;20101;-63
2023/03/31 02:49:22;;;;;;;4.83;0.80;;;;;;;;;;4999637;28;20164;-62
2023/03/31 02:52:06;;;;;;;4.13;0.88;;;;;;;;;;5010154;28;20413;-63
2023/03/31 02:54:31;;;;;;;;;;;;;;;;;;5005607;28;20025;-63
2023/03/31 02:57:02;;;;;;;4.35;0.80;;;;;;;;;;5001410;28;19936;-61
2023/03/31 02:59:27;;;;;;;6.60;1.10;;;;;;;;;;5009615;28;20374;-61
2023/03/31 03:02:22;;;;;;;4.55;0.60;;;;;;;;;;5002738;28;20401;-62
2023/03/31 03:04:52;;;;;;;7.82;1.05;;;;;;;;;;4949330;28;20071;-62
2023/03/31 03:07:23;;;;;;;6.07;0.80;;;;;;;;;;5010923;28;20049;-62
2023/03/31 03:09:58;;;;;;;8.70;0.90;;;;;;;;;;5001931;28;20030;-62
2023/03/31 03:12:26;;;;;;;7.53;0.93;;;;;;;;;;5010976;28;20032;-63
2023/03/31 03:15:12;;;;;;;4.97;0.80;;;;;;;;;;5004999;28;20037;-62
2023/03/31 03:17:41;;;;;;;5.30;0.93;;;;;;;;;;5008268;28;20481;-62
2023/03/31 03:20:08;;;;;;;4.05;0.90;;;;;;;;;;5004902;28;20021;-62
2023/03/31 03:22:33;;;;;;;7.68;1.15;;;;;;;;;;5011922;28;20377;-62
2023/03/31 03:25:01;;;;;;;8.73;1.60;;;;;;;;;;5004819;28;20010;-61
2023/03/31 03:27:27;;;;;;;8.45;1.40;;;;;;;;;;5004855;28;20040;-62
2023/03/31 03:29:52;;;;;;;8.43;1.20;;;;;;;;;;5009268;28;20036;-62
2023/03/31 03:32:17;;;;;;;7.50;1.20;;;;;;;;;;4997871;28;20101;-61
2023/03/31 03:34:42;;;;;;;7.63;1.00;;;;;;;;;;5004500;28;20038;-62
2023/03/31 03:37:08;;;;;;;7.22;1.15;;;;;;;;;;5003171;28;20057;-62
2023/03/31 03:39:34;;;;;;;7.47;1.70;;;;;;;;;;5007969;28;20129;-62
2023/03/31 03:41:59;;;;;;;4.93;0.90;;;;;;;;;;5007772;28;20033;-63
2023/03/31 03:44:24;;;;;;;6.18;0.93;;;;;;;;;;5003474;28;20400;-62
2023/03/31 03:46:50;;;;;;;4.93;0.90;;;;;;;;;;5010400;28;20029;-62
2023/03/31 03:49:15;;;;;;;4.30;1.02;;;;;;;;;;5008162;28;20469;-63
2023/03/31 03:51:40;;;;;;;6.80;0.90;;;;;;;;;;5008055;28;20072;-63
2023/03/31 03:54:05;;;;;;;5.05;1.20;;;;;;;;;;5008883;28;20060;-63
2023/03/31 03:56:30;;;;;;;6.00;1.10;;;;;;;;;;5009806;28;20025;-63
2023/03/31 03:58:56;;;;;;;5.07;0.77;;;;;;;;;;5002520;28;20021;-63
2023/03/31 04:01:21;;;;;;;5.45;1.27;;;;;;;;;;4999083;28;20502;-63
2023/03/31 04:03:46;;;;;;;4.80;0.85;;;;;;;;;;5007598;28;20096;-63
2023/03/31 04:06:12;;;;;;;4.45;1.00;;;;;;;;;;5008364;28;20013;-63
2023/03/31 04:08:37;;;;;;;6.13;0.90;;;;;;;;;;5005421;28;20030;-62
2023/03/31 04:11:02;;;;;;;6.78;1.13;;;;;;;;;;4999926;28;20496;-61
2023/03/31 04:13:27;;;;;;;9.73;1.35;;;;;;;;;;5005447;28;20030;-63
2023/03/31 04:15:53;;;;;;;6.27;0.90;;;;;;;;;;5006577;28;20112;-62
2023/03/31 04:18:21;;;;;;;7.57;1.90;;;;;;;;;;4998911;28;20024;-62
2023/03/31 04:20:53;;;;;;;13.13;3.95;;;;;;;;;;5000554;28;20049;-61
2023/03/31 04:23:19;;;;;;;9.02;2.17;;;;;;;;;;5002877;28;20021;-61
2023/03/31 04:25:45;;;;;;;6.93;1.50;;;;;;;;;;5002125;28;20033;-62
2023/03/31 04:28:13;;;;;;;4.88;1.20;;;;;;;;;;4999618;28;20021;-63
2023/03/31 04:30:38;;;;;;;8.45;1.80;;;;;;;;;;4995214;28;20099;-62
2023/03/31 04:33:05;;;;;;;6.00;1.10;;;;;;;;;;5001626;28;20084;-62
2023/03/31 04:35:51;;;;;;;8.40;1.27;;;;;;;;;;5007296;28;20026;-63
2023/03/31 04:38:17;;;;;;;12.73;1.00;;;;;;;;;;4996140;28;20029;-62
2023/03/31 04:40:43;;;;;;;8.27;1.27;;;;;;;;;;5004988;28;20037;-62
2023/03/31 04:43:08;;;;;;;5.93;1.27;;;;;;;;;;4999452;28;20022;-65
2023/03/31 04:45:33;;;;;;;6.23;1.27;;;;;;;;;;5004418;28;20803;-62
2023/03/31 04:47:58;;;;;;;7.70;1.97;;;;;;;;;;5000884;28;20025;-63
2023/03/31 04:50:23;;;;;;;10.43;1.65;;;;;;;;;;4998975;28;20025;-63
2023/03/31 04:52:48;;;;;;;4.80;0.93;;;;;;;;;;5000889;28;20018;-63
2023/03/31 04:55:14;;;;;;;5.25;1.15;;;;;;;;;;5001070;28;20079;-64
2023/03/31 04:57:39;;;;;;;4.53;1.00;;;;;;;;;;5005571;28;20500;-64
2023/03/31 05:00:08;;;;;;;4.30;0.80;;;;;;;;;;5004964;28;20030;-62
2023/03/31 05:02:33;;;;;;;5.72;1.00;;;;;;;;;;5005171;28;20801;-65
2023/03/31 05:04:58;;;;;;;6.07;1.20;;;;;;;;;;5008556;28;20104;-62
2023/03/31 05:07:23;;;;;;;3.80;0.75;;;;;;;;;;5001921;28;20034;-62
2023/03/31 05:09:48;;;;;;;5.35;0.90;;;;;;;;;;5002422;28;20018;-63
2023/03/31 05:12:13;;;;;;;6.03;1.00;;;;;;;;;;4999055;28;20133;-62
2023/03/31 05:14:38;;;;;;;4.45;0.85;;;;;;;;;;5007543;28;20021;-63
2023/03/31 05:17:04;;;;;;;6.50;1.03;;;;;;;;;;5002424;28;20034;-62
2023/03/31 05:19:29;;;;;;;5.23;1.10;;;;;;;;;;4999943;28;20041;-62
2023/03/31 05:21:54;;;;;;;4.03;0.80;;;;;;;;;;5005896;28;20453;-62
2023/03/31 05:24:19;;;;;;;4.07;0.90;;;;;;;;;;5004269;28;20659;-63
2023/03/31 05:26:51;;;;;;;4.40;1.30;;;;;;;;;;5000805;28;20034;-62
2023/03/31 05:29:17;;;;;;;4.68;1.00;;;;;;;;;;4997255;28;20022;-62
2023/03/31 05:31:42;;;;;;;3.22;0.80;;;;;;;;;;5011434;28;20032;-62
2023/03/31 05:34:07;;;;;;;7.63;1.10;;;;;;;;;;5010579;28;20504;-62
2023/03/31 05:36:32;;;;;;;5.10;1.13;;;;;;;;;;5010576;28;20026;-62
2023/03/31 05:38:57;;;;;;;6.30;1.00;;;;;;;;;;5010004;28;20489;-62
2023/03/31 05:41:23;;;;;;;6.47;1.13;;;;;;;;;;5010891;28;20080;-63
2023/03/31 05:43:48;;;;;;;7.75;1.33;;;;;;;;;;5011068;28;20050;-62
2023/03/31 05:46:13;;;;;;;6.22;1.67;;;;;;;;;;5011393;28;20018;-62
2023/03/31 05:48:38;;;;;;;5.68;1.58;;;;;;;;;;5010249;28;20466;-62
2023/03/31 05:51:04;;;;;;;6.43;1.35;;;;;;;;;;5010668;28;20029;-62
2023/03/31 05:53:29;;;;;;;8.73;1.52;;;;;;;;;;5007541;28;20033;-64
2023/03/31 05:55:58;;;;;;;6.43;1.00;;;;;;;;;;5001502;28;20022;-63
2023/03/31 05:58:24;;;;;;;6.82;1.20;;;;;;;;;;5003511;28;20029;-64
2023/03/31 06:00:49;;;;;;;7.35;1.10;;;;;;;;;;4997282;28;20029;-63
2023/03/31 06:03:14;;;;;;;5.85;1.10;;;;;;;;;;5009482;28;20022;-63
2023/03/31 06:05:46;;;;;;;5.28;1.00;;;;;;;;;;5006001;28;20042;-63
2023/03/31 06:08:11;;;;;;;9.88;1.08;;;;;;;;;;4999153;28;20029;-63
2023/03/31 06:10:37;;;;;;;6.93;1.48;;;;;;;;;;5008606;28;20018;-64
2023/03/31 06:13:02;;;;;;;3.85;0.80;;;;;;;;;;5006243;28;20108;-64
2023/03/31 06:15:27;;;;;;;5.78;0.93;;;;;;;;;;5001499;28;20018;-64
2023/03/31 06:17:52;;;;;;;5.57;0.85;;;;;;;;;;5009119;28;20026;-64
2023/03/31 06:20:17;;;;;;;4.90;0.90;;;;;;;;;;5005725;28;20049;-64
2023/03/31 06:22:43;;;;;;;5.63;1.00;;;;;;;;;;5011603;28;20071;-64
2023/03/31 06:25:08;;;;;;;5.90;1.17;;;;;;;;;;4998544;28;20014;-63
2023/03/31 06:27:33;;;;;;;5.57;1.47;;;;;;;;;;5002157;28;20382;-63
2023/03/31 06:29:58;;;;;;;5.85;1.30;;;;;;;;;;5001496;28;20017;-64
2023/03/31 06:32:23;;;;;;;6.05;1.40;;;;;;;;;;5008187;28;20049;-64
2023/03/31 06:34:48;;;;;;;6.30;1.10;;;;;;;;;;5004522;28;20034;-63
2023/03/31 06:37:14;;;;;;;4.82;0.90;;;;;;;;;;5007178;28;20444;-63
2023/03/31 06:39:39;;;;;;;6.43;1.17;;;;;;;;;;5009847;28;20017;-63
2023/03/31 06:42:06;;;;;;;8.30;1.70;;;;;;;;;;5006108;28;20029;-63
2023/03/31 06:44:31;;;;;;;;;;;;;;;;;;5002181;28;20528;-63
2023/03/31 06:46:56;;;;;;;4.97;0.82;;;;;;;;;;5000154;28;20408;-63
2023/03/31 06:49:21;;;;;;;4.18;0.82;;;;;;;;;;5005399;28;20098;-63
2023/03/31 06:51:46;;;;;;;5.77;0.90;;;;;;;;;;5006352;28;20041;-63
2023/03/31 06:54:11;;;;;;;9.30;1.13;;;;;;;;;;5006433;28;20373;-63
2023/03/31 06:56:36;;;;;;;8.38;1.45;;;;;;;;;;4996629;28;20497;-63
2023/03/31 06:59:02;;;;;;;10.05;1.42;;;;;;;;;;4994232;28;20469;-63
2023/03/31 07:01:27;;;;;;;8.60;1.40;;;;;;;;;;4992963;28;20037;-63
2023/03/31 07:03:52;;;;;;;7.50;1.30;;;;;;;;;;4994082;28;20434;-63
2023/03/31 07:06:17;;;;;;;9.05;1.38;;;;;;;;;;5006997;28;20022;-63
2023/03/31 07:08:42;;;;;;;6.65;1.30;;;;;;;;;;5013139;28;20053;-63
2023/03/31 07:11:07;;;;;;;5.43;1.30;;;;;;;;;;5013763;28;20389;-63
2023/03/31 07:13:33;;;;;;;8.27;1.20;;;;;;;;;;5013681;28;20060;-62
2023/03/31 07:15:58;;;;;;;5.93;1.20;;;;;;;;;;5013758;28;20024;-63
2023/03/31 07:18:24;;;;;;;6.38;1.15;;;;;;;;;;5012628;28;20037;-63
2023/03/31 07:20:50;;;;;;;6.38;1.50;;;;;;;;;;5012891;28;20030;-63
2023/03/31 07:23:15;;;;;;;5.65;1.20;;;;;;;;;;5013433;28;20048;-63
2023/03/31 07:25:41;;;;;;;7.33;1.63;;;;;;;;;;5014085;28;20045;-63
2023/03/31 07:28:06;;;;;;;7.20;1.30;;;;;;;;;;5013031;28;20084;-62
2023/03/31 07:30:31;;;;;;;5.50;1.10;;;;;;;;;;5013594;28;20022;-63
2023/03/31 07:32:56;;;;;;;7.97;1.30;;;;;;;;;;5013101;28;20030;-63
2023/03/31 07:35:22;;;;;;;5.10;1.10;;;;;;;;;;5013167;28;20021;-62
2023/03/31 07:37:48;;;;;;;8.17;1.50;;;;;;;;;;5012915;28;20448;-63
2023/03/31 07:40:15;;;;;;;7.55;1.60;;;;;;;;;;5013103;28;20037;-62
2023/03/31 07:42:41;;;;;;;8.45;1.30;;;;;;;;;;5013158;28;20045;-63
2023/03/31 07:45:07;;;;;;;6.95;1.48;;;;;;;;;;5012787;28;20022;-62
2023/03/31 07:47:32;;;;;;;5.32;1.48;;;;;;;;;;5012416;28;20481;-62
2023/03/31 07:49:57;;;;;;;9.52;1.55;;;;;;;;;;5012886;28;20022;-63
2023/03/31 07:52:23;;;;;;;9.37;1.30;;;;;;;;;;5012804;28;20113;-63
2023/03/31 07:54:48;;;;;;;8.60;1.67;;;;;;;;;;5012891;28;20029;-63
2023/03/31 07:57:15;;;;;;;6.95;1.48;;;;;;;;;;5011735;28;20026;-62
2023/03/31 07:59:40;;;;;;;6.95;1.20;;;;;;;;;;5012626;28;20536;-62
2023/03/31 08:02:05;;;;;;;6.63;1.50;;;;;;;;;;5012179;28;20114;-62
2023/03/31 08:04:30;;;;;;;4.70;1.13;;;;;;;;;;5012625;28;20033;-63
2023/03/31 08:06:56;;;;;;;6.60;1.45;;;;;;;;;;5014265;28;20385;-62
2023/03/31 08:09:22;;;;;;;5.38;1.25;;;;;;;;;;5014118;28;20029;-63
2023/03/31 08:11:47;;;;;;;6.32;1.30;;;;;;;;;;5014284;28;20026;-63
2023/03/31 08:14:12;;;;;;;7.63;1.00;;;;;;;;;;5014246;28;20022;-63
2023/03/31 08:16:37;;;;;;;6.53;1.30;;;;;;;;;;5013377;28;20029;-63
2023/03/31 08:19:03;;;;;;;5.63;1.15;;;;;;;;;;5013200;28;20460;-63
2023/03/31 08:21:28;;;;;;;7.43;1.20;;;;;;;;;;5005125;28;20025;-63
2023/03/31 08:23:55;;;;;;;7.20;1.27;;;;;;;;;;4993234;28;20461;-63
2023/03/31 08:26:23;;;;;;;5.43;1.00;;;;;;;;;;4993021;28;20390;-63
2023/03/31 08:28:48;;;;;;;8.57;1.23;;;;;;;;;;4992991;28;20018;-63
2023/03/31 08:31:15;;;;;;;6.83;1.10;;;;;;;;;;4993360;28;20381;-63
2023/03/31 08:33:40;;;;;;;6.22;1.27;;;;;;;;;;5007083;28;20034;-64
2023/03/31 08:36:07;;;;;;;5.70;1.00;;;;;;;;;;5012322;28;20014;-64
2023/03/31 08:38:33;;;;;;;7.60;1.10;;;;;;;;;;5011701;28;20029;-64
2023/03/31 08:41:00;;;;;;;5.60;1.02;;;;;;;;;;5010986;28;20029;-64
2023/03/31 08:43:29;;;;;;;7.53;1.13;;;;;;;;;;5012492;28;20389;-64
2023/03/31 08:45:55;;;;;;;8.13;1.33;;;;;;;;;;5011844;28;20018;-63
2023/03/31 08:48:25;;;;;;;9.60;1.40;;;;;;;;;;5010992;28;20021;-64
2023/03/31 08:50:53;;;;;;;6.03;1.02;;;;;;;;;;5011928;28;20010;-63
2023/03/31 08:53:18;;;;;;;7.97;1.48;;;;;;;;;;5012030;28;20065;-62
2023/03/31 08:55:54;;;;;;;5.10;1.27;;;;;;;;;;5011224;28;20046;-63
2023/03/31 08:58:38;;;;;;;6.20;1.27;;;;;;;;;;5011279;28;20017;-63
2023/03/31 09:01:04;;;;;;;8.85;1.40;;;;;;;;;;5011877;28;20026;-64
2023/03/31 09:03:33;;;;;;;5.32;1.17;;;;;;;;;;5011372;28;20026;-63
2023/03/31 09:06:12;;;;;;;6.80;1.00;;;;;;;;;;5011707;28;20026;-63
2023/03/31 09:08:39;;;;;;;7.57;1.20;;;;;;;;;;5011448;28;20014;-64
2023/03/31 09:11:05;;;;;;;5.55;1.20;;;;;;;;;;5011633;28;20064;-63
2023/03/31 09:13:43;;;;;;;6.13;1.02;;;;;;;;;;5010527;28;20223;-63
2023/03/31 09:16:13;;;;;;;5.93;1.17;;;;;;;;;;5011809;28;20089;-63
2023/03/31 09:18:39;;;;;;;6.15;1.00;;;;;;;;;;5010911;28;20030;-62
2023/03/31 09:21:17;;;;;;;5.53;1.02;;;;;;;;;;5011315;28;20026;-63
2023/03/31 09:23:45;;;;;;;4.82;0.98;;;;;;;;;;5009781;28;20499;-63
2023/03/31 09:26:17;;;;;;;4.85;0.95;;;;;;;;;;5011429;28;20481;-63
2023/03/31 09:28:42;;;;;;;4.25;0.90;;;;;;;;;;5011410;28;20022;-63
2023/03/31 09:31:11;;;;;;;5.00;0.90;;;;;;;;;;5011520;28;20466;-63
2023/03/31 09:33:40;;;;;;;3.60;0.85;;;;;;;;;;5011245;28;20076;-63
2023/03/31 09:36:12;;;;;;;4.55;0.90;;;;;;;;;;5011275;28;20052;-63
2023/03/31 09:38:38;;;;;;;4.07;0.80;;;;;;;;;;5010939;28;20109;-63
2023/03/31 09:41:04;;;;;;;5.07;0.90;;;;;;;;;;5012310;28;20052;-64
2023/03/31 09:43:30;;;;;;;4.57;0.70;;;;;;;;;;5012218;28;20097;-63
2023/03/31 09:45:55;;;;;;;4.13;0.70;;;;;;;;;;5012392;28;20077;-63
2023/03/31 09:48:22;;;;;;;3.97;0.83;;;;;;;;;;5009508;28;20152;-63
2023/03/31 09:50:57;;;;;;;3.25;0.75;;;;;;;;;;5011069;28;20108;-63
2023/03/31 09:53:41;;;;;;;5.55;0.95;;;;;;;;;;5010745;28;20519;-67
2023/03/31 09:56:07;;;;;;;3.50;0.93;;;;;;;;;;5011410;28;20461;-65
2023/03/31 09:58:43;;;;;;;3.63;0.90;;;;;;;;;;5010873;28;20021;-64
2023/03/31 10:01:09;;;;;;;6.05;1.00;;;;;;;;;;5011412;28;20455;-63
2023/03/31 10:03:51;;;;;;;7.43;1.02;;;;;;;;;;5011340;28;20073;-63
2023/03/31 10:06:16;;;;;;;3.97;0.70;;;;;;;;;;5010661;28;20080;-63
2023/03/31 10:08:59;;;;;;;4.40;0.90;;;;;;;;;;5010590;28;20399;-63
2023/03/31 10:11:26;;;;;;;4.05;1.08;;;;;;;;;;5011033;28;20026;-63
2023/03/31 10:13:51;;;;;;;;;;;;;;;;;;5011728;28;20029;-63
2023/03/31 10:16:21;;;;;;;6.65;1.17;;;;;;;;;;5011017;28;20008;-63
2023/03/31 10:18:46;;;;;;;4.88;1.20;;;;;;;;;;5008491;28;20354;-63
2023/03/31 10:21:25;;;;;;;4.97;1.10;;;;;;;;;;5008182;28;20026;-64
2023/03/31 10:23:52;;;;;;;3.47;1.10;;;;;;;;;;5007423;28;20537;-63
2023/03/31 10:26:19;;;;;;;4.07;1.00;;;;;;;;;;5007343;28;20022;-64
2023/03/31 10:28:46;;;;;;;4.50;1.02;;;;;;;;;;5007096;28;20126;-63
2023/03/31 10:31:11;;;;;;;5.95;1.00;;;;;;;;;;5007210;28;20034;-64
2023/03/31 10:33:41;;;;;;;4.03;1.00;;;;;;;;;;5007137;28;20444;-64
2023/03/31 10:36:07;;;;;;;4.03;1.00;;;;;;;;;;5005999;28;20022;-64
2023/03/31 10:38:39;;;;;;;4.03;1.02;;;;;;;;;;4991604;28;20101;-64
2023/03/31 10:41:05;;;;;;;7.50;1.20;;;;;;;;;;4992711;28;20686;-64
2023/03/31 10:43:46;;;;;;;6.15;1.00;;;;;;;;;;4987847;28;20014;-64
2023/03/31 10:46:11;;;;;;;4.45;1.20;;;;;;;;;;4995668;28;20028;-64
2023/03/31 10:48:39;;;;;;;4.55;1.42;;;;;;;;;;4999468;28;20433;-64
2023/03/31 10:51:10;;;;;;;5.97;1.38;;;;;;;;;;5006899;28;20049;-64
2023/03/31 10:53:40;;;;;;;3.83;1.35;;;;;;;;;;5006980;28;20029;-64
2023/03/31 10:56:25;;;;;;;4.82;1.60;;;;;;;;;;5008357;28;20022;-63
2023/03/31 10:59:09;;;;;;;5.90;1.50;;;;;;;;;;5012653;28;20030;-64
2023/03/31 11:01:34;;;;;;;5.85;1.50;;;;;;;;;;5013298;28;20444;-63
2023/03/31 11:04:03;;;;;;;4.32;1.40;;;;;;;;;;5014017;28;20030;-64
2023/03/31 11:06:38;;;;;;;4.45;1.50;;;;;;;;;;5013397;28;20053;-64
2023/03/31 11:09:21;;;;;;;5.65;1.52;;;;;;;;;;5013711;28;20026;-64
2023/03/31 11:11:57;;;;;;;4.55;1.58;;;;;;;;;;5013410;28;20022;-63
2023/03/31 11:14:29;;;;;;;5.63;1.67;;;;;;;;;;5013475;28;20409;-63
2023/03/31 11:16:55;;;;;;;;;;;;;;;;;;5013427;28;20565;-64
2023/03/31 11:19:37;;;;;;;4.87;1.70;;;;;;;;;;5013472;28;19997;-64
2023/03/31 11:22:23;;;;;;;5.60;1.55;;;;;;;;;;5013651;28;20010;-65
2023/03/31 11:25:06;;;;;;;6.63;1.65;;;;;;;;;;5013053;28;20033;-64
2023/03/31 11:27:54;;;;;;;3.47;1.40;;;;;;;;;;5012905;28;20025;-64
2023/03/31 11:30:29;;;;;;;3.90;1.35;;;;;;;;;;5005287;28;20486;-64
2023/03/31 11:33:04;;;;;;;4.55;1.40;;;;;;;;;;5010989;28;20105;-62
2023/03/31 11:35:55;;;;;;;5.03;1.70;;;;;;;;;;5011471;28;20575;-64
2023/03/31 11:38:43;;;;;;;5.20;1.50;;;;;;;;;;5008693;28;20029;-63
2023/03/31 11:41:29;;;;;;;4.15;1.40;;;;;;;;;;5013086;28;20018;-64
2023/03/31 11:43:56;;;;;;;4.82;1.40;;;;;;;;;;5001460;28;20088;-65
2023/03/31 11:46:24;;;;;;;4.70;1.40;;;;;;;;;;5001605;28;20406;-64
2023/03/31 11:48:52;;;;;;;4.97;1.58;;;;;;;;;;5008646;28;20064;-64
2023/03/31 11:51:20;;;;;;;5.93;1.48;;;;;;;;;;5007688;28;20482;-64
2023/03/31 11:53:47;;;;;;;3.75;1.40;;;;;;;;;;5003396;28;20057;-63
2023/03/31 11:56:13;;;;;;;4.60;1.40;;;;;;;;;;4990546;28;20457;-64
2023/03/31 11:58:41;;;;;;;5.25;1.52;;;;;;;;;;5006586;28;20033;-64
2023/03/31 12:01:13;;;;;;;4.43;1.50;;;;;;;;;;4997713;28;20014;-64
2023/03/31 12:03:42;;;;;;;6.40;1.52;;;;;;;;;;4991112;28;20057;-64
2023/03/31 12:06:16;;;;;;;4.13;1.30;;;;;;;;;;5001106;28;20526;-65
2023/03/31 12:08:46;;;;;;;6.13;1.30;;;;;;;;;;5010978;28;20393;-65
2023/03/31 12:11:18;;;;;;;3.80;1.20;;;;;;;;;;5011656;28;20041;-64
2023/03/31 12:13:43;;;;;;;4.15;1.00;;;;;;;;;;5010097;28;20022;-64
2023/03/31 12:16:11;;;;;;;4.13;1.30;;;;;;;;;;5003397;28;20023;-64
2023/03/31 12:19:03;;;;;;;5.20;1.30;;;;;;;;;;4988831;28;20037;-64
2023/03/31 12:21:28;;;;;;;3.67;1.20;;;;;;;;;;4987622;28;20041;-63
2023/03/31 12:23:54;;;;;;;4.18;1.30;;;;;;;;;;5008948;28;20084;-63
2023/03/31 12:26:37;;;;;;;3.90;1.35;;;;;;;;;;5009127;28;20062;-63
2023/03/31 12:29:10;;;;;;;5.38;1.38;;;;;;;;;;5008775;28;20088;-63
2023/03/31 12:31:37;;;;;;;4.45;1.23;;;;;;;;;;5008320;28;20022;-63
2023/03/31 12:34:07;;;;;;;3.90;1.20;;;;;;;;;;5009062;28;20059;-63
2023/03/31 12:36:45;;;;;;;4.97;1.30;;;;;;;;;;5008661;28;20350;-63
2023/03/31 12:39:26;;;;;;;5.53;1.35;;;;;;;;;;5008431;28;20033;-64
2023/03/31 12:42:11;;;;;;;5.22;1.58;;;;;;;;;;5008703;28;20026;-63
2023/03/31 12:44:52;;;;;;;5.03;1.42;;;;;;;;;;5007767;28;20026;-63
2023/03/31 12:47:43;;;;;;;5.88;1.45;;;;;;;;;;5008273;28;20531;-64
2023/03/31 12:50:27;;;;;;;4.80;1.30;;;;;;;;;;4978338;28;20026;-64
2023/03/31 12:53:04;;;;;;;4.75;1.60;;;;;;;;;;5007158;28;20018;-64
2023/03/31 12:55:36;;;;;;;5.07;1.63;;;;;;;;;;5009263;28;20030;-63
2023/03/31 12:58:21;;;;;;;4.05;1.73;;;;;;;;;;5008524;28;20026;-63
2023/03/31 13:01:05;;;;;;;5.63;1.63;;;;;;;;;;5009556;28;20496;-62
2023/03/31 13:03:36;;;;;;;6.13;1.83;;;;;;;;;;5009046;28;20022;-63
2023/03/31 13:06:02;;;;;;;4.45;1.75;;;;;;;;;;5009426;28;20060;-64
2023/03/31 13:08:46;;;;;;;4.78;1.60;;;;;;;;;;5007737;28;20089;-63
2023/03/31 13:11:11;;;;;;;;;;;;;;;;;;5009295;28;20080;-62
2023/03/31 13:13:39;;;;;;;4.28;1.55;;;;;;;;;;5008775;28;19921;-63
2023/03/31 13:16:04;;;;;;;4.85;1.40;;;;;;;;;;5009093;28;20026;-63
2023/03/31 13:18:32;;;;;;;4.73;1.40;;;;;;;;;;5008179;28;20021;-63
2023/03/31 13:20:58;;;;;;;4.05;1.40;;;;;;;;;;5008823;28;20057;-63
2023/03/31 13:23:27;;;;;;;4.45;1.42;;;;;;;;;;5009380;28;20037;-64
2023/03/31 13:25:53;;;;;;;6.40;1.63;;;;;;;;;;5009916;28;20064;-62
2023/03/31 13:28:21;;;;;;;5.50;1.70;;;;;;;;;;5008344;28;20022;-63
2023/03/31 13:30:49;;;;;;;4.18;1.80;;;;;;;;;;5007766;28;20026;-63
2023/03/31 13:33:19;;;;;;;3.75;1.65;;;;;;;;;;5008319;28;20076;-63
2023/03/31 13:35:46;;;;;;;4.22;1.95;;;;;;;;;;5008137;28;20497;-63
2023/03/31 13:38:21;;;;;;;4.57;1.80;;;;;;;;;;5007161;28;20041;-63
2023/03/31 13:40:49;;;;;;;4.45;1.90;;;;;;;;;;5008041;28;20033;-62
2023/03/31 13:43:36;;;;;;;5.15;1.70;;;;;;;;;;5007687;28;20018;-62
2023/03/31 13:46:20;;;;;;;5.22;1.60;;;;;;;;;;5008323;28;20585;-63
2023/03/31 13:49:03;;;;;;;3.80;1.33;;;;;;;;;;5004775;28;20026;-63
2023/03/31 13:51:47;;;;;;;3.72;1.00;;;;;;;;;;5007755;28;20061;-64
2023/03/31 13:54:29;;;;;;;2.85;1.00;;;;;;;;;;5007251;28;20464;-64
2023/03/31 13:57:13;;;;;;;3.13;0.90;;;;;;;;;;5007017;28;20061;-65
2023/03/31 13:59:40;;;;;;;;;;;;;;;;;;5008382;28;20057;-64
2023/03/31 14:02:31;;;;;;;2.80;0.95;;;;;;;;;;5006547;28;19905;-63
2023/03/31 14:05:21;;;;;;;4.13;0.80;;;;;;;;;;4977029;28;20038;-64
2023/03/31 14:07:49;;;;;;;2.92;0.80;;;;;;;;;;5006692;28;20032;-63
2023/03/31 14:10:21;;;;;;;3.25;0.73;;;;;;;;;;5007766;28;20026;-63
2023/03/31 14:12:47;;;;;;;2.42;0.82;;;;;;;;;;5007376;28;20022;-63
2023/03/31 14:15:17;;;;;;;3.30;1.02;;;;;;;;;;4987914;28;20122;-63
2023/03/31 14:17:43;;;;;;;3.40;0.90;;;;;;;;;;4987169;28;20026;-63
2023/03/31 14:20:14;;;;;;;3.63;0.90;;;;;;;;;;4991439;28;20041;-63
2023/03/31 14:22:58;;;;;;;2.90;0.98;;;;;;;;;;4991250;28;20080;-64
2023/03/31 14:25:41;;;;;;;3.05;0.70;;;;;;;;;;5010342;28;20024;-64
2023/03/31 14:28:24;;;;;;;3.53;0.80;;;;;;;;;;5010915;28;20028;-63
2023/03/31 14:30:51;;;;;;;2.83;0.85;;;;;;;;;;5011882;28;20397;-64
2023/03/31 14:33:36;;;;;;;3.47;1.00;;;;;;;;;;5014499;28;20519;-63
2023/03/31 14:36:10;;;;;;;2.03;0.82;;;;;;;;;;5014932;28;20026;-64
2023/03/31 14:38:36;;;;;;;4.00;1.00;;;;;;;;;;5014148;28;20041;-63
2023/03/31 14:41:02;;;;;;;3.25;0.90;;;;;;;;;;5013745;28;20481;-63
2023/03/31 14:43:34;;;;;;;3.05;0.93;;;;;;;;;;5014357;28;20018;-62
2023/03/31 14:46:00;;;;;;;;;;;;;;;;;;5015004;28;20498;-63
2023/03/31 14:48:27;;;;;;;3.83;0.90;;;;;;;;;;5013732;28;19939;-63
2023/03/31 14:50:56;;;;;;;2.22;0.60;;;;;;;;;;5014129;28;20037;-63
2023/03/31 14:53:22;;;;;;;2.95;0.82;;;;;;;;;;5014158;28;20049;-63
2023/03/31 14:55:49;;;;;;;2.30;0.70;;;;;;;;;;5012954;28;20037;-63
2023/03/31 14:58:26;;;;;;;2.78;0.70;;;;;;;;;;5013733;28;20101;-64
2023/03/31 15:00:52;;;;;;;3.65;0.80;;;;;;;;;;5014190;28;20625;-63